sensor_id;sensor_type;location;lat;lon;timestamp;P1;durP1;ratioP1;P2;durP2;ratioP2
57107;SDS011;42987;52.916;6.542;2023-05-17T00:02:02;15.68;;;5.93;;
57107;SDS011;42987;52.916;6.542;2023-05-17T00:04:27;20.40;;;6.25;;
57107;SDS011;42987;52.916;6.542;2023-05-17T00:06:53;14.50;;;4.93;;
57107;SDS011;42987;52.916;6.542;2023-05-17T00:09:19;19.33;;;4.70;;
57107;SDS011;42987;52.916;6.542;2023-05-17T00:11:45;19.35;;;4.88;;
57107;SDS011;42987;52.916;6.542;2023-05-17T00:14:11;16.42;;;4.30;;
57107;SDS011;42987;52.916;6.542;2023-05-17T00:16:37;17.95;;;4.70;;
57107;SDS011;42987;52.916;6.542;2023-05-17T00:19:08;15.93;;;4.50;;
57107;SDS011;42987;52.916;6.542;2023-05-17T00:21:34;17.17;;;4.82;;
57107;SDS011;42987;52.916;6.542;2023-05-17T00:24:00;15.40;;;4.20;;
57107;SDS011;42987;52.916;6.542;2023-05-17T00:26:26;20.45;;;5.18;;
57107;SDS011;42987;52.916;6.542;2023-05-17T00:28:51;19.05;;;5.32;;
57107;SDS011;42987;52.916;6.542;2023-05-17T00:31:17;14.75;;;4.30;;
57107;SDS011;42987;52.916;6.542;2023-05-17T00:33:43;17.85;;;4.57;;
57107;SDS011;42987;52.916;6.542;2023-05-17T00:36:10;14.18;;;4.45;;
57107;SDS011;42987;52.916;6.542;2023-05-17T00:38:36;21.23;;;4.88;;
57107;SDS011;42987;52.916;6.542;2023-05-17T00:41:01;19.08;;;5.05;;
57107;SDS011;42987;52.916;6.542;2023-05-17T00:43:27;18.90;;;5.50;;
57107;SDS011;42987;52.916;6.542;2023-05-17T00:45:53;13.73;;;3.80;;
57107;SDS011;42987;52.916;6.542;2023-05-17T00:48:19;19.85;;;4.47;;
57107;SDS011;42987;52.916;6.542;2023-05-17T00:50:52;21.55;;;5.32;;
57107;SDS011;42987;52.916;6.542;2023-05-17T00:53:20;17.73;;;4.75;;
57107;SDS011;42987;52.916;6.542;2023-05-17T00:55:46;14.85;;;4.43;;
57107;SDS011;42987;52.916;6.542;2023-05-17T00:58:13;20.08;;;5.43;;
57107;SDS011;42987;52.916;6.542;2023-05-17T01:00:40;15.73;;;4.90;;
57107;SDS011;42987;52.916;6.542;2023-05-17T01:03:06;17.02;;;4.13;;
57107;SDS011;42987;52.916;6.542;2023-05-17T01:05:32;16.00;;;4.38;;
57107;SDS011;42987;52.916;6.542;2023-05-17T01:07:58;17.42;;;4.13;;
57107;SDS011;42987;52.916;6.542;2023-05-17T01:10:27;16.63;;;4.20;;
57107;SDS011;42987;52.916;6.542;2023-05-17T01:13:20;20.02;;;4.80;;
57107;SDS011;42987;52.916;6.542;2023-05-17T01:18:57;18.80;;;4.40;;
57107;SDS011;42987;52.916;6.542;2023-05-17T01:27:04;21.60;;;4.55;;
57107;SDS011;42987;52.916;6.542;2023-05-17T01:29:31;15.63;;;4.10;;
57107;SDS011;42987;52.916;6.542;2023-05-17T01:32:02;18.90;;;4.47;;
57107;SDS011;42987;52.916;6.542;2023-05-17T01:34:30;15.98;;;4.32;;
57107;SDS011;42987;52.916;6.542;2023-05-17T01:36:56;17.35;;;4.47;;
57107;SDS011;42987;52.916;6.542;2023-05-17T01:39:22;16.67;;;4.00;;
57107;SDS011;42987;52.916;6.542;2023-05-17T01:44:47;21.33;;;5.00;;
57107;SDS011;42987;52.916;6.542;2023-05-17T01:47:29;19.92;;;5.07;;
57107;SDS011;42987;52.916;6.542;2023-05-17T01:50:16;18.13;;;4.55;;
57107;SDS011;42987;52.916;6.542;2023-05-17T01:53:32;19.55;;;4.72;;
57107;SDS011;42987;52.916;6.542;2023-05-17T01:58:17;17.52;;;4.60;;
57107;SDS011;42987;52.916;6.542;2023-05-17T02:00:48;16.45;;;4.10;;
57107;SDS011;42987;52.916;6.542;2023-05-17T02:03:18;15.90;;;4.22;;
57107;SDS011;42987;52.916;6.542;2023-05-17T02:05:47;15.23;;;4.25;;
57107;SDS011;42987;52.916;6.542;2023-05-17T02:08:13;13.88;;;4.13;;
57107;SDS011;42987;52.916;6.542;2023-05-17T02:10:39;20.63;;;4.63;;
57107;SDS011;42987;52.916;6.542;2023-05-17T02:13:04;17.38;;;4.70;;
57107;SDS011;42987;52.916;6.542;2023-05-17T02:15:30;19.70;;;5.00;;
57107;SDS011;42987;52.916;6.542;2023-05-17T02:17:56;22.30;;;4.88;;
57107;SDS011;42987;52.916;6.542;2023-05-17T02:20:22;17.02;;;5.47;;
57107;SDS011;42987;52.916;6.542;2023-05-17T02:22:48;22.05;;;5.35;;
57107;SDS011;42987;52.916;6.542;2023-05-17T02:25:14;20.45;;;5.32;;
57107;SDS011;42987;52.916;6.542;2023-05-17T02:27:39;16.77;;;4.90;;
57107;SDS011;42987;52.916;6.542;2023-05-17T02:30:05;19.05;;;5.57;;
57107;SDS011;42987;52.916;6.542;2023-05-17T02:32:32;21.10;;;4.90;;
57107;SDS011;42987;52.916;6.542;2023-05-17T02:34:58;19.48;;;4.78;;
57107;SDS011;42987;52.916;6.542;2023-05-17T02:37:24;17.70;;;5.13;;
57107;SDS011;42987;52.916;6.542;2023-05-17T02:39:53;16.48;;;4.25;;
57107;SDS011;42987;52.916;6.542;2023-05-17T02:42:19;14.57;;;3.70;;
57107;SDS011;42987;52.916;6.542;2023-05-17T02:44:44;17.83;;;4.55;;
57107;SDS011;42987;52.916;6.542;2023-05-17T02:47:12;19.33;;;5.05;;
57107;SDS011;42987;52.916;6.542;2023-05-17T02:49:38;20.63;;;4.82;;
57107;SDS011;42987;52.916;6.542;2023-05-17T02:52:03;16.75;;;4.28;;
57107;SDS011;42987;52.916;6.542;2023-05-17T02:54:29;17.65;;;4.40;;
57107;SDS011;42987;52.916;6.542;2023-05-17T02:56:55;23.25;;;5.45;;
57107;SDS011;42987;52.916;6.542;2023-05-17T02:59:21;15.40;;;4.80;;
57107;SDS011;42987;52.916;6.542;2023-05-17T03:01:47;24.00;;;4.68;;
57107;SDS011;42987;52.916;6.542;2023-05-17T03:04:14;16.27;;;4.40;;
57107;SDS011;42987;52.916;6.542;2023-05-17T03:06:44;18.80;;;4.88;;
57107;SDS011;42987;52.916;6.542;2023-05-17T03:09:10;21.33;;;4.70;;
57107;SDS011;42987;52.916;6.542;2023-05-17T03:11:35;13.93;;;4.15;;
57107;SDS011;42987;52.916;6.542;2023-05-17T03:14:01;17.42;;;4.03;;
57107;SDS011;42987;52.916;6.542;2023-05-17T03:16:30;17.40;;;4.60;;
57107;SDS011;42987;52.916;6.542;2023-05-17T03:18:56;21.65;;;4.50;;
57107;SDS011;42987;52.916;6.542;2023-05-17T03:21:21;14.95;;;4.00;;
57107;SDS011;42987;52.916;6.542;2023-05-17T03:23:47;18.27;;;4.88;;
57107;SDS011;42987;52.916;6.542;2023-05-17T03:26:13;17.17;;;4.18;;
57107;SDS011;42987;52.916;6.542;2023-05-17T03:28:39;20.13;;;4.57;;
57107;SDS011;42987;52.916;6.542;2023-05-17T03:31:04;15.95;;;4.35;;
57107;SDS011;42987;52.916;6.542;2023-05-17T03:33:30;20.75;;;4.30;;
57107;SDS011;42987;52.916;6.542;2023-05-17T03:35:56;15.82;;;4.38;;
57107;SDS011;42987;52.916;6.542;2023-05-17T03:38:22;19.73;;;4.75;;
57107;SDS011;42987;52.916;6.542;2023-05-17T03:40:48;16.58;;;4.13;;
57107;SDS011;42987;52.916;6.542;2023-05-17T03:43:18;23.80;;;5.18;;
57107;SDS011;42987;52.916;6.542;2023-05-17T03:45:44;16.80;;;4.00;;
57107;SDS011;42987;52.916;6.542;2023-05-17T03:48:10;19.77;;;3.65;;
57107;SDS011;42987;52.916;6.542;2023-05-17T03:50:36;17.67;;;3.83;;
57107;SDS011;42987;52.916;6.542;2023-05-17T03:53:05;13.73;;;3.63;;
57107;SDS011;42987;52.916;6.542;2023-05-17T03:55:31;17.20;;;3.80;;
57107;SDS011;42987;52.916;6.542;2023-05-17T03:57:59;14.95;;;4.05;;
57107;SDS011;42987;52.916;6.542;2023-05-17T04:00:25;18.55;;;4.05;;
57107;SDS011;42987;52.916;6.542;2023-05-17T04:02:51;18.05;;;4.50;;
57107;SDS011;42987;52.916;6.542;2023-05-17T04:05:17;16.38;;;3.80;;
57107;SDS011;42987;52.916;6.542;2023-05-17T04:07:43;18.95;;;4.90;;
57107;SDS011;42987;52.916;6.542;2023-05-17T04:10:09;17.27;;;4.03;;
57107;SDS011;42987;52.916;6.542;2023-05-17T04:12:35;17.00;;;3.72;;
57107;SDS011;42987;52.916;6.542;2023-05-17T04:15:01;19.40;;;4.45;;
57107;SDS011;42987;52.916;6.542;2023-05-17T04:17:27;14.50;;;3.60;;
57107;SDS011;42987;52.916;6.542;2023-05-17T04:19:53;11.10;;;3.45;;
57107;SDS011;42987;52.916;6.542;2023-05-17T04:22:19;12.52;;;3.80;;
57107;SDS011;42987;52.916;6.542;2023-05-17T04:24:48;15.85;;;3.78;;
57107;SDS011;42987;52.916;6.542;2023-05-17T04:27:14;20.92;;;4.72;;
57107;SDS011;42987;52.916;6.542;2023-05-17T04:29:40;16.25;;;3.58;;
57107;SDS011;42987;52.916;6.542;2023-05-17T04:32:06;19.42;;;4.32;;
57107;SDS011;42987;52.916;6.542;2023-05-17T04:34:32;13.98;;;3.90;;
57107;SDS011;42987;52.916;6.542;2023-05-17T04:36:58;16.98;;;3.85;;
57107;SDS011;42987;52.916;6.542;2023-05-17T04:39:24;13.68;;;2.83;;
57107;SDS011;42987;52.916;6.542;2023-05-17T04:41:50;13.52;;;3.20;;
57107;SDS011;42987;52.916;6.542;2023-05-17T04:44:18;11.48;;;3.30;;
57107;SDS011;42987;52.916;6.542;2023-05-17T04:46:44;14.15;;;3.33;;
57107;SDS011;42987;52.916;6.542;2023-05-17T04:49:10;11.40;;;2.58;;
57107;SDS011;42987;52.916;6.542;2023-05-17T04:51:36;11.88;;;2.45;;
57107;SDS011;42987;52.916;6.542;2023-05-17T04:54:01;12.18;;;2.80;;
57107;SDS011;42987;52.916;6.542;2023-05-17T04:56:34;11.48;;;2.30;;
57107;SDS011;42987;52.916;6.542;2023-05-17T04:59:00;13.00;;;2.67;;
57107;SDS011;42987;52.916;6.542;2023-05-17T05:01:27;10.50;;;2.67;;
57107;SDS011;42987;52.916;6.542;2023-05-17T05:03:57;13.05;;;2.13;;
57107;SDS011;42987;52.916;6.542;2023-05-17T05:06:23;12.80;;;3.25;;
57107;SDS011;42987;52.916;6.542;2023-05-17T05:08:49;11.05;;;1.92;;
57107;SDS011;42987;52.916;6.542;2023-05-17T05:11:15;9.77;;;2.28;;
57107;SDS011;42987;52.916;6.542;2023-05-17T05:13:44;9.10;;;2.38;;
57107;SDS011;42987;52.916;6.542;2023-05-17T05:16:10;13.30;;;2.80;;
57107;SDS011;42987;52.916;6.542;2023-05-17T05:18:35;17.23;;;3.30;;
57107;SDS011;42987;52.916;6.542;2023-05-17T05:21:01;12.88;;;2.58;;
57107;SDS011;42987;52.916;6.542;2023-05-17T05:23:27;11.93;;;2.70;;
57107;SDS011;42987;52.916;6.542;2023-05-17T05:25:53;10.45;;;2.88;;
57107;SDS011;42987;52.916;6.542;2023-05-17T05:28:19;7.40;;;1.55;;
57107;SDS011;42987;52.916;6.542;2023-05-17T05:30:44;6.90;;;1.70;;
57107;SDS011;42987;52.916;6.542;2023-05-17T05:33:10;9.25;;;1.70;;
57107;SDS011;42987;52.916;6.542;2023-05-17T05:35:36;11.55;;;1.95;;
57107;SDS011;42987;52.916;6.542;2023-05-17T05:38:02;9.00;;;1.83;;
57107;SDS011;42987;52.916;6.542;2023-05-17T05:40:29;8.15;;;1.88;;
57107;SDS011;42987;52.916;6.542;2023-05-17T05:42:54;10.15;;;1.98;;
57107;SDS011;42987;52.916;6.542;2023-05-17T05:45:23;11.48;;;2.15;;
57107;SDS011;42987;52.916;6.542;2023-05-17T05:47:49;9.25;;;2.60;;
57107;SDS011;42987;52.916;6.542;2023-05-17T05:50:14;7.78;;;2.40;;
57107;SDS011;42987;52.916;6.542;2023-05-17T05:52:43;11.05;;;2.30;;
57107;SDS011;42987;52.916;6.542;2023-05-17T05:55:08;9.40;;;2.20;;
57107;SDS011;42987;52.916;6.542;2023-05-17T05:57:34;10.93;;;2.20;;
57107;SDS011;42987;52.916;6.542;2023-05-17T06:00:00;8.40;;;2.03;;
57107;SDS011;42987;52.916;6.542;2023-05-17T06:02:26;7.85;;;2.03;;
57107;SDS011;42987;52.916;6.542;2023-05-17T06:04:52;9.27;;;2.10;;
57107;SDS011;42987;52.916;6.542;2023-05-17T06:07:18;8.27;;;1.92;;
57107;SDS011;42987;52.916;6.542;2023-05-17T06:09:44;9.48;;;1.90;;
57107;SDS011;42987;52.916;6.542;2023-05-17T06:12:10;10.23;;;1.90;;
57107;SDS011;42987;52.916;6.542;2023-05-17T06:14:35;10.00;;;1.77;;
57107;SDS011;42987;52.916;6.542;2023-05-17T06:17:02;12.75;;;2.08;;
57107;SDS011;42987;52.916;6.542;2023-05-17T06:19:28;11.52;;;2.15;;
57107;SDS011;42987;52.916;6.542;2023-05-17T06:21:54;9.50;;;1.98;;
57107;SDS011;42987;52.916;6.542;2023-05-17T06:24:23;10.95;;;2.13;;
57107;SDS011;42987;52.916;6.542;2023-05-17T06:26:49;8.45;;;1.80;;
57107;SDS011;42987;52.916;6.542;2023-05-17T06:29:16;8.35;;;1.92;;
57107;SDS011;42987;52.916;6.542;2023-05-17T06:31:41;10.35;;;2.00;;
57107;SDS011;42987;52.916;6.542;2023-05-17T06:34:10;10.30;;;2.75;;
57107;SDS011;42987;52.916;6.542;2023-05-17T06:36:36;10.95;;;1.95;;
57107;SDS011;42987;52.916;6.542;2023-05-17T06:39:01;12.90;;;2.42;;
57107;SDS011;42987;52.916;6.542;2023-05-17T06:41:27;7.68;;;1.80;;
57107;SDS011;42987;52.916;6.542;2023-05-17T06:43:53;11.85;;;2.60;;
57107;SDS011;42987;52.916;6.542;2023-05-17T06:46:19;9.40;;;2.30;;
57107;SDS011;42987;52.916;6.542;2023-05-17T06:48:45;11.73;;;2.50;;
57107;SDS011;42987;52.916;6.542;2023-05-17T06:51:10;10.70;;;2.03;;
57107;SDS011;42987;52.916;6.542;2023-05-17T06:53:36;13.35;;;3.08;;
57107;SDS011;42987;52.916;6.542;2023-05-17T06:56:02;11.95;;;2.25;;
57107;SDS011;42987;52.916;6.542;2023-05-17T06:58:28;11.85;;;3.05;;
57107;SDS011;42987;52.916;6.542;2023-05-17T07:00:53;13.18;;;3.30;;
57107;SDS011;42987;52.916;6.542;2023-05-17T07:03:19;10.30;;;2.40;;
57107;SDS011;42987;52.916;6.542;2023-05-17T07:05:45;14.20;;;2.83;;
57107;SDS011;42987;52.916;6.542;2023-05-17T07:08:11;11.77;;;2.53;;
57107;SDS011;42987;52.916;6.542;2023-05-17T07:10:38;10.20;;;2.13;;
57107;SDS011;42987;52.916;6.542;2023-05-17T07:13:04;10.43;;;2.70;;
57107;SDS011;42987;52.916;6.542;2023-05-17T07:15:30;12.82;;;3.20;;
57107;SDS011;42987;52.916;6.542;2023-05-17T07:17:56;13.57;;;3.03;;
57107;SDS011;42987;52.916;6.542;2023-05-17T07:20:23;13.70;;;2.88;;
57107;SDS011;42987;52.916;6.542;2023-05-17T07:22:48;9.93;;;2.78;;
57107;SDS011;42987;52.916;6.542;2023-05-17T07:25:14;8.80;;;2.28;;
57107;SDS011;42987;52.916;6.542;2023-05-17T07:27:42;12.55;;;2.75;;
57107;SDS011;42987;52.916;6.542;2023-05-17T07:30:08;9.65;;;2.53;;
57107;SDS011;42987;52.916;6.542;2023-05-17T07:32:35;11.63;;;2.47;;
57107;SDS011;42987;52.916;6.542;2023-05-17T07:35:01;12.15;;;2.80;;
57107;SDS011;42987;52.916;6.542;2023-05-17T07:37:27;12.73;;;2.60;;
57107;SDS011;42987;52.916;6.542;2023-05-17T07:39:53;12.73;;;2.63;;
57107;SDS011;42987;52.916;6.542;2023-05-17T07:42:19;12.82;;;3.08;;
57107;SDS011;42987;52.916;6.542;2023-05-17T07:44:45;12.02;;;2.55;;
57107;SDS011;42987;52.916;6.542;2023-05-17T07:47:13;12.02;;;3.20;;
57107;SDS011;42987;52.916;6.542;2023-05-17T07:49:38;11.18;;;2.83;;
57107;SDS011;42987;52.916;6.542;2023-05-17T07:52:04;15.43;;;2.97;;
57107;SDS011;42987;52.916;6.542;2023-05-17T07:54:30;14.45;;;2.70;;
57107;SDS011;42987;52.916;6.542;2023-05-17T07:56:56;11.43;;;2.53;;
57107;SDS011;42987;52.916;6.542;2023-05-17T07:59:23;10.05;;;2.47;;
57107;SDS011;42987;52.916;6.542;2023-05-17T08:01:50;12.15;;;2.92;;
57107;SDS011;42987;52.916;6.542;2023-05-17T08:04:16;17.00;;;3.10;;
57107;SDS011;42987;52.916;6.542;2023-05-17T08:06:43;13.50;;;2.88;;
57107;SDS011;42987;52.916;6.542;2023-05-17T08:09:12;12.68;;;2.97;;
57107;SDS011;42987;52.916;6.542;2023-05-17T08:11:40;10.75;;;2.80;;
57107;SDS011;42987;52.916;6.542;2023-05-17T08:14:13;13.27;;;3.22;;
57107;SDS011;42987;52.916;6.542;2023-05-17T08:16:40;15.68;;;3.45;;
57107;SDS011;42987;52.916;6.542;2023-05-17T08:19:10;16.60;;;3.42;;
57107;SDS011;42987;52.916;6.542;2023-05-17T08:21:40;12.52;;;3.25;;
57107;SDS011;42987;52.916;6.542;2023-05-17T08:24:07;14.27;;;3.15;;
57107;SDS011;42987;52.916;6.542;2023-05-17T08:26:33;15.68;;;3.38;;
57107;SDS011;42987;52.916;6.542;2023-05-17T08:29:00;10.80;;;3.03;;
57107;SDS011;42987;52.916;6.542;2023-05-17T08:31:26;14.88;;;3.05;;
57107;SDS011;42987;52.916;6.542;2023-05-17T08:33:53;13.52;;;3.13;;
57107;SDS011;42987;52.916;6.542;2023-05-17T08:36:21;11.60;;;2.65;;
57107;SDS011;42987;52.916;6.542;2023-05-17T08:38:47;11.70;;;2.97;;
57107;SDS011;42987;52.916;6.542;2023-05-17T08:41:13;13.73;;;2.92;;
57107;SDS011;42987;52.916;6.542;2023-05-17T08:43:39;12.43;;;3.15;;
57107;SDS011;42987;52.916;6.542;2023-05-17T08:46:05;11.35;;;2.88;;
57107;SDS011;42987;52.916;6.542;2023-05-17T08:48:36;13.25;;;3.22;;
57107;SDS011;42987;52.916;6.542;2023-05-17T08:51:06;13.93;;;3.08;;
57107;SDS011;42987;52.916;6.542;2023-05-17T08:53:34;11.80;;;2.58;;
57107;SDS011;42987;52.916;6.542;2023-05-17T08:56:00;13.38;;;2.33;;
57107;SDS011;42987;52.916;6.542;2023-05-17T08:58:33;9.65;;;2.65;;
57107;SDS011;42987;52.916;6.542;2023-05-17T09:01:03;13.38;;;2.75;;
57107;SDS011;42987;52.916;6.542;2023-05-17T09:03:31;16.52;;;3.80;;
57107;SDS011;42987;52.916;6.542;2023-05-17T09:05:59;14.48;;;2.65;;
57107;SDS011;42987;52.916;6.542;2023-05-17T09:08:26;10.00;;;2.40;;
57107;SDS011;42987;52.916;6.542;2023-05-17T09:10:53;11.77;;;2.95;;
57107;SDS011;42987;52.916;6.542;2023-05-17T09:13:20;11.50;;;2.90;;
57107;SDS011;42987;52.916;6.542;2023-05-17T09:15:47;9.68;;;2.50;;
57107;SDS011;42987;52.916;6.542;2023-05-17T09:18:13;8.48;;;2.25;;
57107;SDS011;42987;52.916;6.542;2023-05-17T09:20:39;11.63;;;2.10;;
57107;SDS011;42987;52.916;6.542;2023-05-17T09:23:09;13.40;;;3.03;;
57107;SDS011;42987;52.916;6.542;2023-05-17T09:25:37;14.02;;;2.90;;
57107;SDS011;42987;52.916;6.542;2023-05-17T09:28:10;12.05;;;2.28;;
57107;SDS011;42987;52.916;6.542;2023-05-17T09:30:37;13.25;;;2.90;;
57107;SDS011;42987;52.916;6.542;2023-05-17T09:33:07;14.45;;;2.92;;
57107;SDS011;42987;52.916;6.542;2023-05-17T09:35:35;11.88;;;2.83;;
57107;SDS011;42987;52.916;6.542;2023-05-17T09:38:05;11.18;;;2.97;;
57107;SDS011;42987;52.916;6.542;2023-05-17T09:40:38;12.90;;;3.33;;
57107;SDS011;42987;52.916;6.542;2023-05-17T09:45:31;11.60;;;2.83;;
57107;SDS011;42987;52.916;6.542;2023-05-17T09:48:09;15.02;;;3.30;;
57107;SDS011;42987;52.916;6.542;2023-05-17T09:50:45;11.00;;;2.95;;
57107;SDS011;42987;52.916;6.542;2023-05-17T09:53:25;14.45;;;3.00;;
57107;SDS011;42987;52.916;6.542;2023-05-17T09:55:52;9.77;;;2.28;;
57107;SDS011;42987;52.916;6.542;2023-05-17T09:58:19;12.18;;;2.40;;
57107;SDS011;42987;52.916;6.542;2023-05-17T10:00:47;11.23;;;2.45;;
57107;SDS011;42987;52.916;6.542;2023-05-17T10:03:19;9.50;;;2.45;;
57107;SDS011;42987;52.916;6.542;2023-05-17T10:05:46;10.60;;;2.47;;
57107;SDS011;42987;52.916;6.542;2023-05-17T10:08:16;10.25;;;2.35;;
57107;SDS011;42987;52.916;6.542;2023-05-17T10:10:45;11.68;;;2.58;;
57107;SDS011;42987;52.916;6.542;2023-05-17T10:13:13;10.07;;;2.40;;
57107;SDS011;42987;52.916;6.542;2023-05-17T10:15:41;8.40;;;2.25;;
57107;SDS011;42987;52.916;6.542;2023-05-17T10:18:08;10.07;;;2.67;;
57107;SDS011;42987;52.916;6.542;2023-05-17T10:20:35;12.05;;;2.72;;
57107;SDS011;42987;52.916;6.542;2023-05-17T10:23:01;9.05;;;2.17;;
57107;SDS011;42987;52.916;6.542;2023-05-17T10:25:30;8.02;;;1.98;;
57107;SDS011;42987;52.916;6.542;2023-05-17T10:27:56;10.02;;;2.10;;
57107;SDS011;42987;52.916;6.542;2023-05-17T10:30:24;9.20;;;2.25;;
57107;SDS011;42987;52.916;6.542;2023-05-17T10:32:51;8.52;;;1.90;;
57107;SDS011;42987;52.916;6.542;2023-05-17T10:35:18;7.63;;;1.85;;
57107;SDS011;42987;52.916;6.542;2023-05-17T10:37:45;10.18;;;1.90;;
57107;SDS011;42987;52.916;6.542;2023-05-17T10:40:10;8.68;;;2.03;;
57107;SDS011;42987;52.916;6.542;2023-05-17T10:42:42;9.15;;;2.13;;
57107;SDS011;42987;52.916;6.542;2023-05-17T10:45:19;7.88;;;1.85;;
57107;SDS011;42987;52.916;6.542;2023-05-17T10:50:25;10.50;;;2.10;;
57107;SDS011;42987;52.916;6.542;2023-05-17T10:52:51;10.32;;;2.55;;
57107;SDS011;42987;52.916;6.542;2023-05-17T10:55:23;9.40;;;2.10;;
57107;SDS011;42987;52.916;6.542;2023-05-17T11:00:40;7.78;;;2.50;;
57107;SDS011;42987;52.916;6.542;2023-05-17T11:03:11;7.28;;;2.22;;
57107;SDS011;42987;52.916;6.542;2023-05-17T11:05:39;9.02;;;1.58;;
57107;SDS011;42987;52.916;6.542;2023-05-17T11:08:14;8.75;;;2.28;;
57107;SDS011;42987;52.916;6.542;2023-05-17T11:11:27;9.80;;;2.42;;
57107;SDS011;42987;52.916;6.542;2023-05-17T11:13:51;9.93;;;2.10;;
57107;SDS011;42987;52.916;6.542;2023-05-17T11:16:37;7.22;;;1.73;;
57107;SDS011;42987;52.916;6.542;2023-05-17T11:19:10;8.57;;;2.15;;
57107;SDS011;42987;52.916;6.542;2023-05-17T11:21:44;6.90;;;1.73;;
57107;SDS011;42987;52.916;6.542;2023-05-17T11:24:10;8.57;;;2.05;;
57107;SDS011;42987;52.916;6.542;2023-05-17T11:26:53;8.75;;;2.05;;
57107;SDS011;42987;52.916;6.542;2023-05-17T11:29:22;7.32;;;2.00;;
57107;SDS011;42987;52.916;6.542;2023-05-17T11:31:53;10.63;;;1.95;;
57107;SDS011;42987;52.916;6.542;2023-05-17T11:34:18;7.32;;;1.98;;
57107;SDS011;42987;52.916;6.542;2023-05-17T11:36:52;10.15;;;2.05;;
57107;SDS011;42987;52.916;6.542;2023-05-17T11:39:20;9.00;;;2.05;;
57107;SDS011;42987;52.916;6.542;2023-05-17T11:41:51;9.73;;;2.05;;
57107;SDS011;42987;52.916;6.542;2023-05-17T11:44:29;8.57;;;2.38;;
57107;SDS011;42987;52.916;6.542;2023-05-17T11:47:00;11.02;;;2.60;;
57107;SDS011;42987;52.916;6.542;2023-05-17T11:49:27;8.60;;;2.20;;
57107;SDS011;42987;52.916;6.542;2023-05-17T11:51:57;7.53;;;2.00;;
57107;SDS011;42987;52.916;6.542;2023-05-17T11:54:23;8.50;;;2.17;;
57107;SDS011;42987;52.916;6.542;2023-05-17T11:56:53;10.82;;;2.60;;
57107;SDS011;42987;52.916;6.542;2023-05-17T11:59:20;9.93;;;2.45;;
57107;SDS011;42987;52.916;6.542;2023-05-17T12:01:47;7.40;;;1.80;;
57107;SDS011;42987;52.916;6.542;2023-05-17T12:04:22;11.45;;;2.10;;
57107;SDS011;42987;52.916;6.542;2023-05-17T12:06:49;9.85;;;2.33;;
57107;SDS011;42987;52.916;6.542;2023-05-17T12:09:16;9.23;;;2.03;;
57107;SDS011;42987;52.916;6.542;2023-05-17T12:11:42;10.95;;;2.20;;
57107;SDS011;42987;52.916;6.542;2023-05-17T12:14:08;7.93;;;1.77;;
57107;SDS011;42987;52.916;6.542;2023-05-17T12:16:35;7.65;;;2.10;;
57107;SDS011;42987;52.916;6.542;2023-05-17T12:19:03;8.70;;;2.30;;
57107;SDS011;42987;52.916;6.542;2023-05-17T12:21:29;9.98;;;2.30;;
57107;SDS011;42987;52.916;6.542;2023-05-17T12:23:54;10.35;;;2.45;;
57107;SDS011;42987;52.916;6.542;2023-05-17T12:26:22;9.48;;;2.38;;
57107;SDS011;42987;52.916;6.542;2023-05-17T12:28:54;13.05;;;2.58;;
57107;SDS011;42987;52.916;6.542;2023-05-17T12:31:31;8.65;;;2.13;;
57107;SDS011;42987;52.916;6.542;2023-05-17T12:34:00;10.48;;;2.45;;
57107;SDS011;42987;52.916;6.542;2023-05-17T12:36:28;12.80;;;2.60;;
57107;SDS011;42987;52.916;6.542;2023-05-17T12:38:57;8.95;;;2.25;;
57107;SDS011;42987;52.916;6.542;2023-05-17T12:41:24;12.27;;;3.15;;
57107;SDS011;42987;52.916;6.542;2023-05-17T12:43:53;8.80;;;2.40;;
57107;SDS011;42987;52.916;6.542;2023-05-17T12:46:20;10.45;;;2.10;;
57107;SDS011;42987;52.916;6.542;2023-05-17T12:48:48;9.05;;;2.35;;
57107;SDS011;42987;52.916;6.542;2023-05-17T12:51:16;9.52;;;2.17;;
57107;SDS011;42987;52.916;6.542;2023-05-17T12:53:43;9.80;;;2.25;;
57107;SDS011;42987;52.916;6.542;2023-05-17T12:56:15;9.75;;;2.72;;
57107;SDS011;42987;52.916;6.542;2023-05-17T12:58:42;9.45;;;1.92;;
57107;SDS011;42987;52.916;6.542;2023-05-17T13:01:08;10.90;;;2.20;;
57107;SDS011;42987;52.916;6.542;2023-05-17T13:03:41;10.07;;;2.25;;
57107;SDS011;42987;52.916;6.542;2023-05-17T13:06:14;8.52;;;2.40;;
57107;SDS011;42987;52.916;6.542;2023-05-17T13:08:40;11.48;;;2.42;;
57107;SDS011;42987;52.916;6.542;2023-05-17T13:11:06;9.57;;;2.20;;
57107;SDS011;42987;52.916;6.542;2023-05-17T13:13:36;8.10;;;2.00;;
57107;SDS011;42987;52.916;6.542;2023-05-17T13:16:02;9.88;;;2.42;;
57107;SDS011;42987;52.916;6.542;2023-05-17T13:18:28;14.45;;;2.75;;
57107;SDS011;42987;52.916;6.542;2023-05-17T13:20:55;8.60;;;2.45;;
57107;SDS011;42987;52.916;6.542;2023-05-17T13:23:22;8.07;;;2.15;;
57107;SDS011;42987;52.916;6.542;2023-05-17T13:25:47;8.48;;;1.95;;
57107;SDS011;42987;52.916;6.542;2023-05-17T13:28:13;9.32;;;2.42;;
57107;SDS011;42987;52.916;6.542;2023-05-17T13:30:39;8.38;;;2.22;;
57107;SDS011;42987;52.916;6.542;2023-05-17T13:33:05;10.32;;;2.88;;
57107;SDS011;42987;52.916;6.542;2023-05-17T13:35:31;7.90;;;1.92;;
57107;SDS011;42987;52.916;6.542;2023-05-17T13:37:56;12.85;;;2.22;;
57107;SDS011;42987;52.916;6.542;2023-05-17T13:40:22;9.70;;;2.20;;
57107;SDS011;42987;52.916;6.542;2023-05-17T13:42:48;10.85;;;2.00;;
57107;SDS011;42987;52.916;6.542;2023-05-17T13:45:14;9.85;;;2.30;;
57107;SDS011;42987;52.916;6.542;2023-05-17T13:47:40;7.25;;;1.90;;
57107;SDS011;42987;52.916;6.542;2023-05-17T13:50:06;6.97;;;1.70;;
57107;SDS011;42987;52.916;6.542;2023-05-17T13:52:32;11.05;;;2.42;;
57107;SDS011;42987;52.916;6.542;2023-05-17T13:54:57;7.63;;;1.85;;
57107;SDS011;42987;52.916;6.542;2023-05-17T13:57:23;8.75;;;2.20;;
57107;SDS011;42987;52.916;6.542;2023-05-17T13:59:49;11.55;;;2.33;;
57107;SDS011;42987;52.916;6.542;2023-05-17T14:02:15;8.18;;;2.05;;
57107;SDS011;42987;52.916;6.542;2023-05-17T14:04:41;11.88;;;2.42;;
57107;SDS011;42987;52.916;6.542;2023-05-17T14:07:07;9.65;;;2.05;;
57107;SDS011;42987;52.916;6.542;2023-05-17T14:09:32;10.30;;;2.60;;
57107;SDS011;42987;52.916;6.542;2023-05-17T14:11:59;10.05;;;2.10;;
57107;SDS011;42987;52.916;6.542;2023-05-17T14:14:26;9.32;;;2.22;;
57107;SDS011;42987;52.916;6.542;2023-05-17T14:16:52;10.65;;;2.17;;
57107;SDS011;42987;52.916;6.542;2023-05-17T14:19:18;7.28;;;1.90;;
57107;SDS011;42987;52.916;6.542;2023-05-17T14:21:45;8.82;;;2.05;;
57107;SDS011;42987;52.916;6.542;2023-05-17T14:24:10;8.57;;;2.22;;
57107;SDS011;42987;52.916;6.542;2023-05-17T14:26:36;11.48;;;2.40;;
57107;SDS011;42987;52.916;6.542;2023-05-17T14:29:02;9.07;;;2.00;;
57107;SDS011;42987;52.916;6.542;2023-05-17T14:31:29;9.38;;;2.08;;
57107;SDS011;42987;52.916;6.542;2023-05-17T14:33:56;7.63;;;2.30;;
57107;SDS011;42987;52.916;6.542;2023-05-17T14:36:23;10.52;;;2.75;;
57107;SDS011;42987;52.916;6.542;2023-05-17T14:38:52;7.75;;;2.08;;
57107;SDS011;42987;52.916;6.542;2023-05-17T14:41:18;10.10;;;2.58;;
57107;SDS011;42987;52.916;6.542;2023-05-17T14:43:46;6.85;;;2.00;;
57107;SDS011;42987;52.916;6.542;2023-05-17T14:46:12;6.47;;;1.88;;
57107;SDS011;42987;52.916;6.542;2023-05-17T14:48:38;10.77;;;2.05;;
57107;SDS011;42987;52.916;6.542;2023-05-17T14:51:04;10.52;;;2.90;;
57107;SDS011;42987;52.916;6.542;2023-05-17T14:53:30;7.13;;;2.00;;
57107;SDS011;42987;52.916;6.542;2023-05-17T14:55:56;12.75;;;2.00;;
57107;SDS011;42987;52.916;6.542;2023-05-17T14:58:23;7.90;;;1.88;;
57107;SDS011;42987;52.916;6.542;2023-05-17T15:00:49;7.50;;;1.90;;
57107;SDS011;42987;52.916;6.542;2023-05-17T15:03:21;9.00;;;2.25;;